Time;durP1;ratioP1;P1;durP2;ratioP2;P2;SDS_P1;SDS_P2;PMS_P1;PMS_P2;Temp;Humidity;BMP_temperature;BMP_pressure;BME280_temperature;BME280_humidity;BME280_pressure;Samples;Min_cycle;Max_cycle;Signal;HPM_P1;HPM_P2
2023/03/22 00:00:39;;;;;;;7.43;6.00;;;;;;;12.85;46.85;98941.31;5124815;28;20047;-71
2023/03/22 00:03:06;;;;;;;6.93;5.40;;;;;;;13.07;47.13;98977.88;5125781;28;20118;-71
2023/03/22 00:05:34;;;;;;;6.80;5.65;;;;;;;12.72;47.00;98913.88;5125797;28;20035;-71
2023/03/22 00:08:04;;;;;;;7.85;5.63;;;;;;;12.37;47.04;98879.16;5125766;28;20042;-71
2023/03/22 00:10:31;;;;;;;6.18;5.57;;;;;;;13.04;47.09;98973.63;5130119;28;20204;-71
2023/03/22 00:12:59;;;;;;;6.20;5.60;;;;;;;11.58;46.96;98768.59;5129461;28;20270;-71
2023/03/22 00:15:28;;;;;;;6.68;5.35;;;;;;;13.04;47.04;98976.28;5130088;28;20053;-71
2023/03/22 00:17:55;;;;;;;6.32;4.68;;;;;;;11.98;47.15;98803.03;5112025;28;20043;-71
2023/03/22 00:20:23;;;;;;;7.18;5.72;;;;;;;12.58;47.22;98898.06;5130065;28;20244;-71
2023/03/22 00:22:51;;;;;;;7.20;4.95;;;;;;;12.88;47.17;98951.72;5129811;28;20040;-71
2023/03/22 00:25:18;;;;;;;7.47;5.15;;;;;;;12.99;47.21;98969.56;5128974;28;20047;-71
2023/03/22 00:27:45;;;;;;;10.85;6.05;;;;;;;12.19;47.71;98868.00;5128658;28;20226;-71
2023/03/22 00:30:13;;;;;;;6.95;5.38;;;;;;;12.91;47.28;98961.28;5128554;28;20110;-71
2023/03/22 00:32:41;;;;;;;6.47;5.35;;;;;;;12.87;47.57;98975.75;5128537;28;20048;-71
2023/03/22 00:35:09;;;;;;;8.70;6.45;;;;;;;12.84;47.81;98967.03;5129287;27;20032;-71
2023/03/22 00:37:38;;;;;;;9.32;5.70;;;;;;;12.78;47.82;98967.47;5129262;28;20059;-72
2023/03/22 00:40:08;;;;;;;6.68;5.10;;;;;;;12.74;47.83;98960.66;5129490;28;20238;-71
2023/03/22 00:42:36;;;;;;;7.00;5.15;;;;;;;12.71;47.82;98966.22;5129224;28;20051;-71
2023/03/22 00:45:04;;;;;;;6.00;4.72;;;;;;;12.66;47.94;98957.69;5128531;28;20053;-71
2023/03/22 00:47:31;;;;;;;6.35;5.22;;;;;;;12.11;48.02;98875.63;5129484;28;20046;-72
2023/03/22 00:49:59;;;;;;;7.63;5.82;;;;;;;12.62;48.01;98952.72;5129097;28;20111;-72
2023/03/22 00:52:26;;;;;;;6.55;5.20;;;;;;;12.59;48.04;98948.44;5129136;28;20036;-71
2023/03/22 00:54:53;;;;;;;6.38;5.38;;;;;;;12.56;48.29;98948.66;5129133;28;20067;-72
2023/03/22 00:57:22;;;;;;;8.10;5.28;;;;;;;12.55;48.39;98948.78;5129342;28;20115;-72
2023/03/22 00:59:51;;;;;;;6.78;4.95;;;;;;;11.50;48.21;98781.53;5127512;28;20135;-72
2023/03/22 01:02:18;;;;;;;6.15;4.88;;;;;;;12.50;48.46;98943.78;5128516;28;20303;-72
2023/03/22 01:04:46;;;;;;;7.47;5.07;;;;;;;12.48;48.28;98929.75;5128604;28;20070;-72
2023/03/22 01:07:16;;;;;;;7.78;5.38;;;;;;;12.21;48.35;98895.31;5128618;28;20081;-70
2023/03/22 01:09:43;;;;;;;6.20;5.30;;;;;;;12.45;48.54;98938.78;5128508;28;20311;-71
2023/03/22 01:12:11;;;;;;;6.60;4.95;;;;;;;10.93;48.46;98686.38;5128236;28;20115;-70
2023/03/22 01:14:39;;;;;;;5.97;4.93;;;;;;;11.89;48.70;98844.34;5129123;28;20043;-69
2023/03/22 01:17:07;;;;;;;6.28;4.30;;;;;;;12.34;48.60;98919.22;5128900;28;20046;-71
2023/03/22 01:19:34;;;;;;;7.45;5.18;;;;;;;12.44;48.49;98936.22;5128567;28;20074;-71
2023/03/22 01:22:01;;;;;;;5.88;4.72;;;;;;;12.45;48.55;98937.94;5127745;28;20035;-71
2023/03/22 01:24:28;;;;;;;6.22;5.18;;;;;;;12.44;48.71;98934.41;5127464;28;20207;-71
2023/03/22 01:26:55;;;;;;;5.90;5.07;;;;;;;12.23;48.53;98893.41;5128588;28;20351;-71
2023/03/22 01:29:22;;;;;;;7.10;5.47;;;;;;;12.43;48.67;98932.72;5127872;28;20092;-71
2023/03/22 01:31:52;;;;;;;7.68;4.90;;;;;;;9.19;48.60;98381.94;5128384;28;20043;-71
2023/03/22 01:34:21;;;;;;;7.65;5.55;;;;;;;11.91;48.71;98842.44;5127173;28;20051;-72
2023/03/22 01:36:49;;;;;;;6.38;4.20;;;;;;;12.43;48.79;98924.75;5128305;28;20103;-71
2023/03/22 01:39:16;;;;;;;6.10;4.60;;;;;;;12.12;48.63;98864.88;5127986;28;20120;-71
2023/03/22 01:41:43;;;;;;;7.88;5.25;;;;;;;12.47;48.75;98912.94;5127115;28;20431;-71
2023/03/22 01:44:12;;;;;;;7.10;5.75;;;;;;;12.50;48.65;98918.03;5128442;28;20031;-72
2023/03/22 01:46:39;;;;;;;5.40;4.45;;;;;;;12.15;48.67;98859.34;5126816;28;20196;-71
2023/03/22 01:49:14;;;;;;;6.38;4.40;;;;;;;12.52;48.88;98923.25;5127829;28;20048;-72
2023/03/22 01:51:41;;;;;;;;;;;;;;;12.45;49.89;98914.88;5127487;28;20207;-72
2023/03/22 01:54:12;;;;;;;5.78;4.30;;;;;;;12.45;48.61;98917.53;5127591;28;19947;-71
2023/03/22 01:56:41;;;;;;;7.05;5.03;;;;;;;12.50;48.74;98923.38;5127062;28;20074;-71
2023/03/22 01:59:11;;;;;;;5.43;4.78;;;;;;;12.52;48.46;98918.78;5126466;28;20123;-71
2023/03/22 02:01:39;;;;;;;5.43;3.92;;;;;;;12.12;48.41;98840.13;5126647;28;20050;-72
2023/03/22 02:04:12;;;;;;;6.47;4.43;;;;;;;12.55;48.96;98911.56;5127500;28;20032;-72
2023/03/22 02:06:39;;;;;;;5.20;4.28;;;;;;;12.55;48.51;98908.91;5127410;28;20093;-72
2023/03/22 02:09:08;;;;;;;5.00;4.45;;;;;;;12.35;48.40;98876.59;5127459;28;20350;-72
2023/03/22 02:11:38;;;;;;;5.65;4.18;;;;;;;12.54;48.83;98907.19;5126526;28;20063;-72
2023/03/22 02:14:26;;;;;;;5.53;3.90;;;;;;;12.52;49.27;98905.50;5126330;28;20089;-72
2023/03/22 02:17:05;;;;;;;5.55;3.85;;;;;;;12.51;49.36;98906.47;5126355;28;20114;-72
2023/03/22 02:20:09;;;;;;;6.25;4.53;;;;;;;12.21;49.23;98850.16;5127462;28;20359;-71
2023/03/22 02:23:19;;;;;;;5.40;4.07;;;;;;;12.54;49.64;98912.53;5127090;28;20172;-72
2023/03/22 02:26:25;;;;;;;4.93;3.85;;;;;;;12.52;49.55;98908.16;5064904;28;20359;-72
2023/03/22 02:28:57;;;;;;;6.20;4.20;;;;;;;12.51;48.93;98908.25;5127004;28;20096;-71
2023/03/22 02:31:49;;;;;;;6.78;4.55;;;;;;;12.50;49.66;98902.09;5125579;28;20050;-71
2023/03/22 02:34:37;;;;;;;8.75;3.92;;;;;;;12.41;49.42;98894.78;5126752;28;20043;-71
2023/03/22 02:37:34;;;;;;;5.15;4.25;;;;;;;12.48;49.50;98901.34;5125746;28;20039;-71
2023/03/22 02:40:09;;;;;;;5.50;4.03;;;;;;;12.41;48.97;98888.59;5125659;28;20054;-71
2023/03/22 02:42:49;;;;;;;4.93;3.95;;;;;;;11.98;49.14;98824.25;5126711;28;20103;-72
2023/03/22 02:45:23;;;;;;;4.72;3.85;;;;;;;12.53;49.01;98893.06;5126733;28;20110;-71
2023/03/22 02:47:55;;;;;;;5.40;4.00;;;;;;;12.54;48.97;98901.88;5127245;28;20043;-71
2023/03/22 02:50:27;;;;;;;4.95;3.83;;;;;;;12.54;48.90;98899.22;5125780;28;20053;-71
2023/03/22 02:53:01;;;;;;;5.85;4.43;;;;;;;12.55;49.15;98899.13;5125498;28;20044;-71
2023/03/22 02:55:31;;;;;;;;;;;;;;;12.48;50.30;98900.50;5126392;28;20039;-71
2023/03/22 02:58:03;;;;;;;6.15;4.13;;;;;;;12.13;49.35;98844.47;5126444;28;19994;-71
2023/03/22 03:00:32;;;;;;;6.07;3.90;;;;;;;12.51;48.94;98900.28;5126489;28;20177;-71
2023/03/22 03:03:10;;;;;;;4.80;3.65;;;;;;;12.52;49.25;98902.84;5126970;28;20045;-71
2023/03/22 03:05:39;;;;;;;6.57;4.22;;;;;;;12.56;49.02;98902.63;5126928;28;20294;-70
2023/03/22 03:08:08;;;;;;;5.18;3.53;;;;;;;12.55;49.08;98908.91;5126903;28;20114;-71
2023/03/22 03:10:37;;;;;;;7.15;4.20;;;;;;;12.55;49.44;98904.44;5125427;28;20043;-71
2023/03/22 03:13:04;;;;;;;6.57;4.00;;;;;;;12.56;49.01;98902.63;5125826;28;20061;-71
2023/03/22 03:15:31;;;;;;;5.40;4.30;;;;;;;12.58;48.94;98917.50;5126743;28;20058;-72
2023/03/22 03:18:12;;;;;;;4.95;3.95;;;;;;;12.60;49.48;98906.78;5125339;28;20035;-72
2023/03/22 03:20:51;;;;;;;6.72;3.78;;;;;;;12.59;49.32;98900.59;5125354;28;20119;-72
2023/03/22 03:23:27;;;;;;;4.25;3.75;;;;;;;12.60;49.46;98906.78;5126158;28;20059;-71
2023/03/22 03:26:01;;;;;;;4.93;3.90;;;;;;;12.61;49.38;98916.44;5126070;28;20058;-73
2023/03/22 03:28:38;;;;;;;4.45;3.67;;;;;;;12.25;49.03;98854.28;5125266;28;20032;-72
2023/03/22 03:31:13;;;;;;;5.07;4.40;;;;;;;12.28;48.92;98854.06;5125921;28;20044;-72
2023/03/22 03:33:48;;;;;;;4.50;3.67;;;;;;;12.64;49.25;98902.94;5125917;28;20039;-72
2023/03/22 03:36:17;;;;;;;;;;;;;;;12.60;49.71;98918.25;5125974;28;20049;-72
2023/03/22 03:38:49;;;;;;;5.60;3.72;;;;;;;12.59;49.03;98910.38;5125178;28;19916;-72
2023/03/22 03:41:20;;;;;;;4.50;3.40;;;;;;;12.62;49.06;98912.84;5125093;28;20043;-72
2023/03/22 03:43:48;;;;;;;5.13;3.75;;;;;;;12.64;48.84;98917.06;5127149;28;20039;-72
2023/03/22 03:46:15;;;;;;;5.05;3.67;;;;;;;12.42;48.77;98875.22;5130185;28;20393;-71
2023/03/22 03:48:46;;;;;;;5.45;3.88;;;;;;;12.67;48.84;98908.03;5129295;28;20054;-72
2023/03/22 03:51:13;;;;;;;4.30;3.80;;;;;;;12.67;49.13;98914.19;5129211;28;20036;-72
2023/03/22 03:53:40;;;;;;;4.55;3.78;;;;;;;12.68;48.88;98915.06;5129955;28;20057;-72
2023/03/22 03:56:08;;;;;;;5.78;4.07;;;;;;;12.47;48.88;98872.22;5130518;28;20048;-72
2023/03/22 03:58:37;;;;;;;5.47;3.63;;;;;;;7.21;48.69;97993.47;5130219;28;20044;-72
2023/03/22 04:01:04;;;;;;;6.10;3.92;;;;;;;12.40;49.19;98885.09;5130397;28;20334;-71
2023/03/22 04:03:31;;;;;;;6.70;4.82;;;;;;;12.52;48.98;98891.38;5130141;28;20043;-72
2023/03/22 04:05:59;;;;;;;5.07;3.63;;;;;;;12.66;49.04;98917.81;5128982;28;20031;-72
2023/03/22 04:08:27;;;;;;;5.65;4.60;;;;;;;12.44;48.97;98875.94;5129160;28;20036;-72
2023/03/22 04:10:54;;;;;;;6.13;4.75;;;;;;;12.69;49.00;98914.09;5130256;28;20275;-72
2023/03/22 04:13:23;;;;;;;4.85;4.13;;;;;;;12.68;49.23;98910.59;5129571;27;20073;-72
2023/03/22 04:15:56;;;;;;;5.10;4.00;;;;;;;12.67;49.28;98916.88;5128670;28;20039;-72
2023/03/22 04:18:23;;;;;;;6.63;4.60;;;;;;;12.67;49.02;98914.19;5128970;28;20093;-72
2023/03/22 04:20:52;;;;;;;6.38;4.07;;;;;;;12.66;49.04;98914.31;5129747;28;20036;-71
2023/03/22 04:23:21;;;;;;;5.57;5.00;;;;;;;12.22;49.24;98840.38;5129390;28;20075;-72
2023/03/22 04:25:49;;;;;;;5.70;4.28;;;;;;;12.68;49.22;98917.72;5129938;28;20110;-71
2023/03/22 04:28:16;;;;;;;7.13;4.65;;;;;;;12.68;49.23;98926.53;5129598;28;20054;-71
2023/03/22 04:30:44;;;;;;;5.22;4.28;;;;;;;12.67;49.51;98922.19;5129243;28;20097;-72
2023/03/22 04:33:14;;;;;;;5.38;4.60;;;;;;;12.67;49.30;98921.34;5127979;28;20071;-72
2023/03/22 04:35:41;;;;;;;5.85;4.70;;;;;;;12.67;49.32;98927.50;5128415;28;20064;-72
2023/03/22 04:38:08;;;;;;;6.07;4.93;;;;;;;12.67;49.33;98921.34;5129425;28;20047;-72
2023/03/22 04:40:37;;;;;;;6.85;5.18;;;;;;;12.64;49.31;98926.88;5128271;28;20058;-72
2023/03/22 04:43:04;;;;;;;5.95;5.20;;;;;;;12.65;49.12;98924.09;5128444;28;20066;-71
2023/03/22 04:45:34;;;;;;;6.95;5.90;;;;;;;12.65;49.65;98924.09;5129307;28;20046;-72
2023/03/22 04:48:01;;;;;;;6.70;5.00;;;;;;;12.66;49.66;98923.13;5128943;28;20255;-72
2023/03/22 04:50:29;;;;;;;6.90;5.32;;;;;;;12.66;49.59;98919.63;5128927;28;20050;-72
2023/03/22 04:52:57;;;;;;;8.60;5.97;;;;;;;12.31;49.76;98858.31;5129032;28;20042;-72
2023/03/22 04:55:26;;;;;;;8.38;6.50;;;;;;;12.67;49.42;98924.00;5128841;28;20176;-72
2023/03/22 04:57:54;;;;;;;7.00;5.85;;;;;;;12.51;49.65;98884.34;5128788;28;20043;-72
2023/03/22 05:00:21;;;;;;;6.75;6.03;;;;;;;12.68;49.56;98918.56;5129248;28;20049;-72
2023/03/22 05:02:48;;;;;;;6.85;5.70;;;;;;;12.51;49.52;98890.50;5128635;28;20039;-72
2023/03/22 05:05:15;;;;;;;7.57;5.95;;;;;;;12.67;49.78;98924.00;5128931;28;20035;-72
2023/03/22 05:07:43;;;;;;;7.00;6.30;;;;;;;12.68;49.47;98925.69;5128200;28;20283;-72
2023/03/22 05:10:10;;;;;;;7.50;6.00;;;;;;;12.68;49.59;98929.19;5128595;28;20303;-72
2023/03/22 05:12:38;;;;;;;7.60;6.40;;;;;;;12.69;49.64;98925.59;5127441;28;20048;-72
2023/03/22 05:15:06;;;;;;;9.07;5.65;;;;;;;12.38;50.02;98870.22;5128974;28;20039;-72
2023/03/22 05:17:33;;;;;;;7.68;6.35;;;;;;;12.69;49.90;98924.72;5128707;28;20050;-72
2023/03/22 05:20:07;;;;;;;8.50;6.60;;;;;;;12.69;50.01;98924.72;5128986;28;20047;-72
2023/03/22 05:22:36;;;;;;;6.53;5.82;;;;;;;12.32;49.88;98860.88;5128690;28;20180;-72
2023/03/22 05:25:06;;;;;;;7.00;6.30;;;;;;;12.68;49.86;98926.53;5127977;28;20042;-72
2023/03/22 05:27:33;;;;;;;6.85;5.68;;;;;;;12.68;50.05;98937.19;5128832;28;20097;-71
2023/03/22 05:30:01;;;;;;;6.53;5.53;;;;;;;11.33;49.89;98702.25;5127998;28;20040;-72
2023/03/22 05:32:28;;;;;;;7.82;6.22;;;;;;;12.70;49.97;98937.91;5128051;28;20062;-72
2023/03/22 05:34:55;;;;;;;8.98;5.63;;;;;;;12.54;50.11;98909.84;5128495;28;20054;-72
2023/03/22 05:37:22;;;;;;;8.35;6.35;;;;;;;12.73;49.98;98942.16;5127249;28;20088;-72
2023/03/22 05:39:49;;;;;;;8.18;6.70;;;;;;;12.73;50.18;98940.38;5127400;28;20050;-72
2023/03/22 05:42:17;;;;;;;6.97;6.10;;;;;;;12.51;50.23;98911.78;5126910;28;20050;-72
2023/03/22 05:44:44;;;;;;;8.90;6.63;;;;;;;12.73;50.17;98944.81;5126993;28;20035;-72
2023/03/22 05:47:11;;;;;;;8.35;7.10;;;;;;;12.73;50.33;98947.47;5128167;28;20107;-72
2023/03/22 05:49:38;;;;;;;9.20;6.93;;;;;;;12.74;50.13;98946.53;5127072;28;20044;-72
2023/03/22 05:52:06;;;;;;;9.93;6.88;;;;;;;12.00;50.13;98820.56;5110027;28;20046;-72
2023/03/22 05:54:32;;;;;;;8.02;6.40;;;;;;;12.75;50.13;98951.75;5127710;28;20295;-72
2023/03/22 05:56:59;;;;;;;9.05;6.15;;;;;;;12.77;50.41;98954.28;5127670;28;20061;-72
2023/03/22 05:59:28;;;;;;;8.32;6.25;;;;;;;12.78;50.37;98958.66;5127637;28;20329;-72
2023/03/22 06:01:55;;;;;;;7.70;6.38;;;;;;;12.81;50.28;98963.75;5127894;28;20296;-72
2023/03/22 06:04:22;;;;;;;7.90;6.82;;;;;;;12.84;50.61;98966.19;5127571;28;20047;-72
2023/03/22 06:06:49;;;;;;;6.85;6.10;;;;;;;12.88;50.25;98970.34;5126413;28;20053;-72
2023/03/22 06:09:16;;;;;;;8.60;6.85;;;;;;;12.92;50.05;98970.97;5127439;28;20111;-72
2023/03/22 06:11:43;;;;;;;7.45;6.75;;;;;;;12.25;50.13;98854.28;5127655;28;20035;-72
2023/03/22 06:14:09;;;;;;;7.47;6.70;;;;;;;12.97;50.06;98975.00;5127496;28;20043;-72
2023/03/22 06:16:37;;;;;;;7.72;6.32;;;;;;;12.42;50.08;98885.84;5127336;28;20253;-71
2023/03/22 06:19:04;;;;;;;8.82;6.93;;;;;;;12.56;50.02;98906.13;5127104;28;20058;-71
2023/03/22 06:21:31;;;;;;;8.15;6.88;;;;;;;13.02;49.95;98977.34;5110243;28;20036;-72
2023/03/22 06:23:58;;;;;;;7.32;6.40;;;;;;;13.05;49.90;98979.78;5126115;28;20038;-71
2023/03/22 06:26:25;;;;;;;9.60;6.78;;;;;;;13.07;49.92;98978.72;5127226;28;20043;-71
2023/03/22 06:28:52;;;;;;;6.93;5.82;;;;;;;13.09;49.81;98974.13;5126595;28;20036;-72
2023/03/22 06:31:18;;;;;;;7.35;6.63;;;;;;;13.10;49.88;98981.16;5127352;28;20058;-72
2023/03/22 06:33:47;;;;;;;9.18;6.75;;;;;;;13.14;49.88;98976.47;5126612;28;20043;-72
2023/03/22 06:36:14;;;;;;;8.02;7.22;;;;;;;13.14;49.62;98979.97;5126934;28;20040;-72
2023/03/22 06:38:41;;;;;;;7.97;6.68;;;;;;;12.87;49.63;98933.22;5126618;28;20081;-72
2023/03/22 06:41:08;;;;;;;8.32;6.65;;;;;;;13.20;49.64;98988.47;5125687;28;20032;-72
2023/03/22 06:43:35;;;;;;;6.97;5.90;;;;;;;13.23;49.45;98990.91;5125644;28;20331;-72
2023/03/22 06:46:01;;;;;;;8.77;6.72;;;;;;;13.24;49.84;98987.31;5126355;28;20216;-71
2023/03/22 06:48:28;;;;;;;7.65;6.80;;;;;;;13.27;49.63;98987.06;5125350;28;20054;-72
2023/03/22 06:50:58;;;;;;;11.30;7.05;;;;;;;13.18;49.57;98969.97;5126613;28;20295;-72
2023/03/22 06:53:25;;;;;;;9.48;6.57;;;;;;;13.32;49.45;98985.78;5126258;28;20191;-72
2023/03/22 06:55:52;;;;;;;8.05;6.88;;;;;;;13.19;49.54;98952.19;5108683;28;20054;-72
2023/03/22 06:58:19;;;;;;;7.72;6.75;;;;;;;13.14;49.67;98952.53;5125605;28;20123;-72
2023/03/22 07:03:30;;;;;;;7.07;5.88;;;;;;;13.38;49.54;98977.34;5126440;28;20040;-72
2023/03/22 07:06:02;;;;;;;8.40;6.35;;;;;;;13.41;49.65;98986.94;5125579;28;20046;-72
2023/03/22 07:08:29;;;;;;;8.15;6.97;;;;;;;13.44;49.55;98979.59;5126196;28;20057;-72
2023/03/22 07:10:56;;;;;;;7.13;6.43;;;;;;;13.45;49.61;98977.78;5126184;28;20031;-72
2023/03/22 07:13:23;;;;;;;9.00;6.53;;;;;;;13.29;49.68;98945.25;5125394;28;20043;-72
2023/03/22 07:15:54;;;;;;;8.68;6.15;;;;;;;13.52;49.54;98978.19;5126067;28;20035;-72
2023/03/22 07:18:21;;;;;;;8.38;6.47;;;;;;;13.57;49.40;98970.72;5126338;28;20035;-72
2023/03/22 07:20:48;;;;;;;8.07;6.93;;;;;;;13.61;49.50;98975.72;5108305;28;20043;-72
2023/03/22 07:23:17;;;;;;;7.65;6.85;;;;;;;13.67;49.47;98975.25;5108522;28;20056;-72
2023/03/22 07:25:44;;;;;;;7.60;6.50;;;;;;;13.70;49.25;98977.69;5125636;28;20081;-71
2023/03/22 07:28:11;;;;;;;8.60;6.25;;;;;;;13.56;49.25;98943.25;5126466;28;20058;-72
2023/03/22 07:30:38;;;;;;;7.78;6.85;;;;;;;13.83;49.24;98977.63;5126063;28;20050;-72
2023/03/22 07:33:05;;;;;;;7.95;6.38;;;;;;;13.91;48.72;98980.56;5125483;28;20100;-72
2023/03/22 07:35:32;;;;;;;10.00;6.13;;;;;;;13.96;49.03;98982.91;5126139;28;20036;-72
2023/03/22 07:38:00;;;;;;;8.13;6.38;;;;;;;14.05;49.10;98979.53;5126250;28;20047;-72
2023/03/22 07:40:29;;;;;;;7.50;6.07;;;;;;;14.23;48.66;98982.63;5125221;28;20218;-72
2023/03/22 07:42:57;;;;;;;5.93;5.22;;;;;;;14.47;48.49;98986.09;5125327;28;20130;-72
2023/03/22 07:45:25;;;;;;;6.57;5.70;;;;;;;14.50;47.73;98919.19;5125093;28;20199;-72
2023/03/22 07:47:51;;;;;;;9.27;7.07;;;;;;;15.26;47.36;98976.38;5125077;28;20046;-72
2023/03/22 07:50:19;;;;;;;6.78;5.50;;;;;;;15.80;46.02;98967.53;5108265;28;20054;-73
2023/03/22 07:52:46;;;;;;;6.45;5.68;;;;;;;16.14;45.64;98969.09;5108310;28;20048;-72
2023/03/22 07:55:15;;;;;;;8.40;6.15;;;;;;;16.31;45.04;98957.81;5125672;28;20042;-72
2023/03/22 07:57:44;;;;;;;9.43;6.40;;;;;;;16.35;45.03;98961.06;5126097;28;20035;-73
2023/03/22 08:00:11;;;;;;;8.10;5.40;;;;;;;16.35;45.30;98953.06;5125666;28;20180;-72
2023/03/22 08:02:38;;;;;;;7.15;5.15;;;;;;;16.36;45.46;98960.94;5124842;28;20062;-72
2023/03/22 08:05:07;;;;;;;8.35;5.88;;;;;;;16.36;45.32;98950.25;5125645;28;20110;-73
2023/03/22 08:07:33;;;;;;;6.97;5.32;;;;;;;16.19;45.21;98917.91;5126035;28;20085;-73
2023/03/22 08:10:05;;;;;;;7.28;5.68;;;;;;;16.17;44.99;98904.66;5124847;28;20302;-73
2023/03/22 08:12:32;;;;;;;7.78;6.00;;;;;;;16.74;44.90;98951.47;5126083;28;20054;-72
2023/03/22 08:15:00;;;;;;;7.75;5.45;;;;;;;16.94;44.02;98953.28;5125707;28;20103;-72
2023/03/22 08:17:28;;;;;;;6.18;5.38;;;;;;;16.99;43.94;98947.50;5125785;28;20048;-73
2023/03/22 08:19:55;;;;;;;6.70;5.15;;;;;;;17.07;44.14;98952.19;5125495;28;20043;-72
2023/03/22 08:22:24;;;;;;;6.97;5.40;;;;;;;17.13;43.87;98959.69;5108642;28;20057;-72
2023/03/22 08:24:52;;;;;;;6.28;5.60;;;;;;;17.19;43.77;98932.34;5125515;28;20208;-73
2023/03/22 08:27:20;;;;;;;7.15;5.32;;;;;;;16.12;42.92;98710.91;5125483;28;20046;-73
2023/03/22 08:29:48;;;;;;;11.38;5.18;;;;;;;17.91;42.89;98956.22;5126988;28;20044;-73
2023/03/22 08:32:17;;;;;;;6.97;6.25;;;;;;;17.65;42.24;98853.25;5129118;27;20062;-72
2023/03/22 08:34:44;;;;;;;5.80;5.13;;;;;;;18.51;41.88;98955.06;5129375;28;20042;-72
2023/03/22 08:37:13;;;;;;;7.63;5.20;;;;;;;18.57;41.37;98951.81;5129663;28;20282;-73
2023/03/22 08:39:40;;;;;;;9.00;5.70;;;;;;;18.45;41.48;98893.06;5129223;28;20173;-73
2023/03/22 08:42:07;;;;;;;6.07;4.60;;;;;;;18.59;41.01;98881.91;5127864;28;20063;-72
2023/03/22 08:44:35;;;;;;;6.57;5.93;;;;;;;19.19;40.55;98950.31;5128212;28;20039;-73
2023/03/22 08:47:02;;;;;;;6.80;5.30;;;;;;;19.48;40.00;98938.59;5129076;28;20318;-73
2023/03/22 08:49:31;;;;;;;9.02;7.05;;;;;;;18.96;39.76;98836.22;5128329;28;20299;-73
2023/03/22 08:51:58;;;;;;;8.38;5.72;;;;;;;19.82;40.12;98936.97;5128366;28;20310;-73
2023/03/22 08:54:26;;;;;;;8.23;6.75;;;;;;;19.66;39.52;98866.03;5127647;28;20043;-74
2023/03/22 08:56:53;;;;;;;10.55;6.07;;;;;;;20.17;39.06;98911.91;5128009;28;20050;-73
2023/03/22 08:59:20;;;;;;;8.55;6.45;;;;;;;19.72;38.92;98790.16;5127748;28;20306;-73
2023/03/22 09:01:47;;;;;;;5.53;4.75;;;;;;;20.64;38.28;98926.88;5126890;28;20035;-73
2023/03/22 09:04:14;;;;;;;6.28;5.15;;;;;;;20.52;38.15;98883.25;5128518;28;20309;-73
2023/03/22 09:06:46;;;;;;;4.82;4.28;;;;;;;20.92;37.06;98932.94;5128414;28;20092;-73
2023/03/22 09:09:15;;;;;;;5.28;4.78;;;;;;;21.00;37.51;98935.69;5128096;28;20238;-73
2023/03/22 09:11:41;;;;;;;6.68;4.88;;;;;;;20.99;37.80;98923.22;5127669;28;20067;-73
2023/03/22 09:14:10;;;;;;;6.22;4.43;;;;;;;20.43;37.55;98815.06;5127537;28;20035;-73
2023/03/22 09:16:37;;;;;;;6.45;4.40;;;;;;;18.85;37.66;98533.91;5127602;28;20063;-73
2023/03/22 09:19:05;;;;;;;6.20;3.90;;;;;;;21.20;37.38;98880.56;5128618;28;20044;-73
2023/03/22 09:21:32;;;;;;;8.07;5.22;;;;;;;21.32;36.66;98875.72;5128226;28;20327;-73
2023/03/22 09:24:00;;;;;;;6.43;4.50;;;;;;;21.76;36.53;98916.75;5127345;28;20330;-73
2023/03/22 09:26:28;;;;;;;5.95;4.10;;;;;;;21.80;36.28;98917.28;5128442;28;20032;-73
2023/03/22 09:28:55;;;;;;;5.70;4.30;;;;;;;21.74;36.14;98921.47;5128127;28;20085;-73
2023/03/22 09:31:21;;;;;;;7.03;3.80;;;;;;;21.61;36.53;98891.44;5110587;28;20039;-73
2023/03/22 09:33:48;;;;;;;5.43;4.30;;;;;;;21.78;36.34;98914.72;5110086;28;20059;-73
2023/03/22 09:36:15;;;;;;;5.65;4.38;;;;;;;21.74;36.37;98907.97;5128287;28;20046;-73
2023/03/22 09:38:42;;;;;;;6.15;4.20;;;;;;;21.70;36.13;98906.63;5127532;28;20051;-73
2023/03/22 09:41:15;;;;;;;7.95;3.88;;;;;;;21.78;35.60;98910.19;5128244;28;20043;-73
2023/03/22 09:43:49;;;;;;;5.68;4.30;;;;;;;21.69;35.45;98862.63;5127989;28;20047;-73
2023/03/22 09:46:20;;;;;;;8.27;4.63;;;;;;;22.12;35.63;98897.59;5127223;28;20035;-73
2023/03/22 09:48:49;;;;;;;6.82;4.95;;;;;;;22.01;35.05;98887.97;5127939;28;20063;-73
2023/03/22 09:51:28;;;;;;;8.93;5.63;;;;;;;22.03;33.60;98902.13;5126837;28;20237;-73
2023/03/22 09:53:55;;;;;;;6.47;4.80;;;;;;;22.03;35.53;98900.28;5127585;28;20044;-73
2023/03/22 09:56:27;;;;;;;6.00;4.13;;;;;;;21.89;34.29;98873.13;5126635;28;20123;-73
2023/03/22 09:59:00;;;;;;;4.20;3.15;;;;;;;21.97;35.01;98873.13;5127882;28;20035;-73
2023/03/22 10:01:33;;;;;;;6.15;4.80;;;;;;;22.23;34.38;98889.16;5127493;28;20058;-74
2023/03/22 10:04:34;;;;;;;6.82;4.03;;;;;;;22.09;33.19;98869.09;5127998;28;20066;-73
2023/03/22 10:07:10;;;;;;;5.40;3.55;;;;;;;22.24;33.71;98891.66;5127564;28;20070;-73
2023/03/22 10:09:47;;;;;;;4.97;3.97;;;;;;;22.16;33.53;98880.88;5127504;28;20039;-73
2023/03/22 10:12:25;;;;;;;4.88;3.97;;;;;;;21.97;32.91;98887.47;5127734;28;20051;-73
2023/03/22 10:14:59;;;;;;;5.25;4.43;;;;;;;21.37;33.71;98776.34;5127379;28;20047;-73
2023/03/22 10:17:29;;;;;;;6.55;3.83;;;;;;;22.08;34.45;98873.63;5125863;28;20077;-73
2023/03/22 10:20:00;;;;;;;6.00;4.00;;;;;;;22.16;34.37;98877.34;5127160;28;20042;-73
2023/03/22 10:22:31;;;;;;;7.63;4.93;;;;;;;21.93;34.16;98844.81;5126373;28;20039;-73
2023/03/22 10:25:00;;;;;;;7.75;5.95;;;;;;;22.09;34.50;98872.63;5126336;28;20273;-73
2023/03/22 10:27:31;;;;;;;7.57;5.05;;;;;;;22.00;33.74;98862.84;5127263;28;20043;-73
2023/03/22 10:30:03;;;;;;;6.70;4.90;;;;;;;22.20;33.95;98866.03;5127034;28;20280;-73
2023/03/22 10:32:39;;;;;;;8.00;5.15;;;;;;;22.26;33.17;98840.22;5126996;28;20103;-73
2023/03/22 10:35:08;;;;;;;7.22;4.95;;;;;;;22.48;33.61;98861.13;5125616;28;20039;-73
2023/03/22 10:37:38;;;;;;;6.88;4.13;;;;;;;22.20;33.39;98833.66;5125977;28;20046;-73
2023/03/22 10:40:10;;;;;;;6.38;4.50;;;;;;;22.01;33.61;98825.91;5126736;28;20051;-73
2023/03/22 10:42:40;;;;;;;6.22;4.25;;;;;;;22.08;33.14;98857.44;5125833;28;20126;-73
2023/03/22 10:45:14;;;;;;;6.60;4.40;;;;;;;21.95;33.44;98832.84;5125969;28;20055;-73
2023/03/22 10:47:46;;;;;;;7.50;3.92;;;;;;;22.18;33.46;98857.25;5126512;28;20099;-73
2023/03/22 10:50:18;;;;;;;13.05;5.18;;;;;;;21.98;33.17;98816.31;5126357;28;20059;-73
2023/03/22 10:52:51;;;;;;;7.43;5.55;;;;;;;22.17;32.72;98855.59;5126272;28;20039;-73
2023/03/22 10:55:18;;;;;;;5.80;4.30;;;;;;;22.22;33.30;98838.88;5125838;28;20035;-73
2023/03/22 10:57:56;;;;;;;4.95;3.88;;;;;;;22.12;32.45;98824.72;5125443;28;20054;-73
2023/03/22 11:00:27;;;;;;;5.07;4.25;;;;;;;22.07;33.07;98782.06;5126021;28;20046;-73
2023/03/22 11:02:59;;;;;;;5.97;4.22;;;;;;;22.52;31.77;98848.13;5126682;28;20047;-73
2023/03/22 11:05:28;;;;;;;5.35;4.05;;;;;;;22.53;32.54;98845.25;5126147;28;20063;-73
2023/03/22 11:07:57;;;;;;;5.80;4.63;;;;;;;22.58;32.54;98847.47;5126411;28;20040;-73
2023/03/22 11:10:27;;;;;;;5.05;4.20;;;;;;;22.51;32.53;98841.88;5125486;28;20051;-73
2023/03/22 11:13:11;;;;;;;5.32;3.70;;;;;;;22.44;31.71;98843.59;5126212;28;20037;-73
2023/03/22 11:15:42;;;;;;;5.43;3.53;;;;;;;22.35;32.48;98844.59;5111157;28;20040;-73
2023/03/22 11:18:14;;;;;;;5.80;4.35;;;;;;;21.61;31.83;98717.03;5125682;28;20299;-73
2023/03/22 11:20:52;;;;;;;5.68;4.13;;;;;;;22.45;32.12;98841.72;5125044;28;20059;-73
2023/03/22 11:23:21;;;;;;;5.03;3.40;;;;;;;22.51;31.68;98849.97;5125018;28;20119;-73
2023/03/22 11:25:49;;;;;;;4.82;3.25;;;;;;;22.26;31.76;98805.13;5126288;28;20057;-73
2023/03/22 11:28:20;;;;;;;5.70;3.33;;;;;;;22.25;31.72;98828.56;5125008;28;20043;-73
2023/03/22 11:31:04;;;;;;;6.85;3.42;;;;;;;22.03;30.46;98802.31;5126115;28;20294;-73
2023/03/22 11:33:32;;;;;;;;;;;;;;;22.08;30.72;98824.22;5108397;28;20052;-73
2023/03/22 11:36:02;;;;;;;7.32;3.40;;;;;;;22.16;32.48;98820.66;5108257;28;20171;-73
2023/03/22 11:38:37;;;;;;;6.70;3.63;;;;;;;22.24;32.29;98815.25;5125050;28;20070;-73
2023/03/22 11:41:07;;;;;;;4.13;3.30;;;;;;;22.37;31.98;98813.72;5126131;28;20238;-73
2023/03/22 11:43:37;;;;;;;3.92;2.65;;;;;;;21.43;31.40;98643.56;5125644;28;20300;-73
2023/03/22 11:46:07;;;;;;;5.47;3.30;;;;;;;22.53;31.75;98798.50;5125272;28;20057;-73
2023/03/22 11:48:35;;;;;;;5.88;3.78;;;;;;;22.69;31.68;98793.06;5126332;28;20040;-73